Terminal Aerodrome Forecast
Issued by NWS Lubbock, TX

Home | Current Version | Previous Version | Text Only | Print | Product List | Glossary On
Versions: 1 2 3 4 5 6 7 8 9 10 11 12 13 14 15 16 17 18 19 20 21 22 23 24 25 26
000
FTUS44 KLUB 231301 AAA
TAFLBB
TAF AMD
KLBB 231301Z 2313/2412 15015KT P6SM BKN005 OVC010
     FM231400 17016KT P6SM BKN010 BKN035
     FM231600 17018G26KT P6SM SCT010 BKN060
     FM240300 18010KT P6SM SCT010 BKN150=

USA.gov is the U.S. government's official web portal to all federal, state and local government web resources and services.